Time;durP1;ratioP1;P1;durP2;ratioP2;P2;SDS_P1;SDS_P2;PMS_P1;PMS_P2;Temp;Humidity;BMP_temperature;BMP_pressure;BME280_temperature;BME280_humidity;BME280_pressure;Samples;Min_cycle;Max_cycle;Signal;HPM_P1;HPM_P2
2022/10/26 00:00:51;;;;;;;15.45;6.93;;;8.80;99.90;;;;;;4924495;29;20050;-71
2022/10/26 00:03:17;;;;;;;10.63;6.72;;;8.70;99.90;;;;;;4933043;29;20043;-72
2022/10/26 00:05:43;;;;;;;9.52;6.70;;;8.70;99.90;;;;;;4934247;29;20044;-72
2022/10/26 00:08:08;;;;;;;9.23;6.40;;;8.70;99.90;;;;;;4930631;29;20070;-72
2022/10/26 00:10:35;;;;;;;15.00;8.57;;;8.60;99.90;;;;;;4932291;29;20043;-72
2022/10/26 00:13:01;;;;;;;15.35;8.73;;;8.60;99.90;;;;;;4933806;29;20044;-72
2022/10/26 00:15:27;;;;;;;14.35;7.15;;;8.70;99.90;;;;;;4930331;29;20397;-72
2022/10/26 00:17:53;;;;;;;25.63;7.10;;;8.70;99.90;;;;;;4920659;29;20048;-72
2022/10/26 00:20:18;;;;;;;28.55;7.78;;;8.70;99.90;;;;;;4934708;29;20402;-71
2022/10/26 00:22:45;;;;;;;140.77;8.55;;;8.60;99.90;;;;;;4934882;29;20087;-71
2022/10/26 00:25:10;;;;;;;21.98;7.13;;;8.50;99.90;;;;;;4937960;29;20058;-72
2022/10/26 00:27:36;;;;;;;15.80;8.18;;;8.40;99.90;;;;;;4925357;29;20506;-72
2022/10/26 00:30:04;;;;;;;13.68;9.05;;;8.40;99.90;;;;;;4934809;29;20044;-71
2022/10/26 00:32:30;;;;;;;16.08;9.75;;;8.50;99.90;;;;;;4928958;29;20040;-71
2022/10/26 00:34:56;;;;;;;20.25;11.13;;;8.60;99.90;;;;;;4932168;29;20035;-70
2022/10/26 00:37:22;;;;;;;17.73;10.68;;;8.60;99.90;;;;;;4934689;29;20044;-71
2022/10/26 00:39:47;;;;;;;35.50;9.73;;;8.60;99.90;;;;;;4928961;29;20040;-71
2022/10/26 00:42:19;;;;;;;28.75;10.70;;;8.60;99.90;;;;;;4919504;29;20088;-71
2022/10/26 00:44:45;;;;;;;11.43;8.10;;;8.60;99.90;;;;;;4930924;29;20410;-71
2022/10/26 00:47:13;;;;;;;17.45;10.52;;;8.60;99.90;;;;;;4932097;29;20049;-71
2022/10/26 00:49:39;;;;;;;21.08;10.63;;;8.60;99.90;;;;;;4917176;29;20051;-71
2022/10/26 00:52:07;;;;;;;22.63;11.73;;;8.50;99.90;;;;;;4929136;29;20079;-71
2022/10/26 00:54:33;;;;;;;44.53;12.13;;;8.60;99.90;;;;;;4932851;29;20047;-70
2022/10/26 00:56:58;;;;;;;167.18;11.57;;;8.60;99.90;;;;;;4927748;29;20056;-71
2022/10/26 00:59:24;;;;;;;84.50;9.05;;;8.40;99.90;;;;;;4932010;29;20465;-71
2022/10/26 01:01:51;;;;;;;44.35;10.00;;;8.20;99.90;;;;;;4933572;29;20530;-71
2022/10/26 01:04:17;;;;;;;71.28;11.10;;;8.20;99.90;;;;;;4934442;29;20047;-71
2022/10/26 01:06:45;;;;;;;36.05;9.27;;;8.10;99.90;;;;;;4923162;29;20076;-71
2022/10/26 01:09:11;;;;;;;25.33;9.13;;;8.10;99.90;;;;;;4926305;29;20051;-71
2022/10/26 01:11:37;;;;;;;12.82;8.68;;;8.10;99.90;;;;;;4931784;29;20116;-71
2022/10/26 01:14:06;;;;;;;15.07;11.05;;;8.10;99.90;;;;;;4925876;29;20640;-70
2022/10/26 01:17:15;;;;;;;24.13;12.45;;;8.10;99.90;;;;;;4916594;29;20036;-71
2022/10/26 01:20:03;;;;;;;27.00;13.40;;;8.20;99.90;;;;;;4930439;29;20047;-70
2022/10/26 01:22:48;;;;;;;25.42;14.73;;;8.40;99.90;;;;;;4924815;29;20503;-70
2022/10/26 01:25:29;;;;;;;30.27;15.65;;;8.50;99.90;;;;;;4927370;29;20052;-71
2022/10/26 01:27:55;;;;;;;24.30;14.65;;;8.70;99.90;;;;;;4932989;29;20131;-70
2022/10/26 01:30:38;;;;;;;24.42;14.70;;;8.70;99.90;;;;;;4925270;29;20050;-71
2022/10/26 01:33:29;;;;;;;25.42;15.52;;;8.60;99.90;;;;;;4924833;29;20046;-71
2022/10/26 01:36:02;;;;;;;26.65;14.43;;;8.60;99.90;;;;;;4932967;29;20051;-71
2022/10/26 01:38:41;;;;;;;25.33;15.50;;;8.60;99.90;;;;;;4922174;29;20051;-71
2022/10/26 01:41:22;;;;;;;23.90;14.68;;;8.60;99.90;;;;;;4921624;29;20039;-70
2022/10/26 01:43:55;;;;;;;30.37;15.80;;;8.60;99.90;;;;;;4932449;29;20044;-70
2022/10/26 01:46:23;;;;;;;34.38;16.70;;;8.70;99.90;;;;;;4933318;29;20490;-71
2022/10/26 01:48:54;;;;;;;27.40;16.30;;;8.80;99.90;;;;;;4925416;29;20040;-70
2022/10/26 01:51:21;;;;;;;28.67;15.38;;;8.80;99.90;;;;;;4923305;29;20054;-70
2022/10/26 01:53:47;;;;;;;22.80;14.45;;;8.80;99.90;;;;;;4972777;23;20133;-68
2022/10/26 01:56:40;;;;;;;27.50;15.80;;;8.60;99.90;;;;;;4981614;28;20125;-68
2022/10/26 01:59:21;;;;;;;32.47;17.20;;;8.70;99.90;;;;;;4980880;28;20046;-68
2022/10/26 02:01:47;;;;;;;36.53;18.60;;;8.80;99.90;;;;;;4990045;28;20042;-68
2022/10/26 02:04:27;;;;;;;34.72;17.35;;;8.90;99.90;;;;;;4973561;28;20053;-68
2022/10/26 02:07:26;;;;;;;34.22;18.48;;;9.00;99.90;;;;;;4964821;28;20488;-68
2022/10/26 02:10:34;;;;;;;37.92;17.88;;;9.10;99.90;;;;;;4970759;28;20455;-67
2022/10/26 02:13:20;;;;;;;34.88;16.83;;;9.00;99.90;;;;;;4957860;28;20078;-67
2022/10/26 02:16:27;;;;;;;34.13;15.98;;;9.00;99.90;;;;;;4971437;28;20043;-68
2022/10/26 02:19:21;;;;;;;28.48;15.63;;;8.80;99.90;;;;;;4951337;28;20058;-67
2022/10/26 02:21:53;;;;;;;28.40;16.85;;;8.70;99.90;;;;;;4967588;28;20061;-67
2022/10/26 02:24:21;;;;;;;33.60;16.52;;;8.70;99.90;;;;;;4970458;28;20105;-69
2022/10/26 02:26:49;;;;;;;31.33;17.38;;;8.70;99.90;;;;;;4975629;28;20145;-69
2022/10/26 02:29:18;;;;;;;34.78;18.83;;;8.80;99.90;;;;;;4957372;28;20113;-69
2022/10/26 02:31:47;;;;;;;34.85;18.85;;;8.90;99.90;;;;;;4968903;28;20045;-68
2022/10/26 02:34:19;;;;;;;38.83;18.52;;;8.90;99.90;;;;;;4975429;28;20394;-68
2022/10/26 02:36:47;;;;;;;36.67;18.50;;;8.90;99.90;;;;;;4974262;28;20046;-67
2022/10/26 02:39:16;;;;;;;36.13;18.98;;;9.00;99.90;;;;;;4963580;28;20378;-67
2022/10/26 02:41:44;;;;;;;38.50;18.50;;;9.00;99.90;;;;;;4966820;28;20039;-68
2022/10/26 02:44:59;;;;;;;37.65;19.52;;;9.00;99.90;;;;;;4975242;28;20042;-66
2022/10/26 02:47:25;;;;;;;34.38;18.25;;;9.10;99.90;;;;;;4955871;28;20055;-68
2022/10/26 02:49:51;;;;;;;40.63;20.63;;;9.00;99.90;;;;;;4973591;28;20126;-69
2022/10/26 02:52:20;;;;;;;38.50;19.95;;;9.10;99.90;;;;;;4975026;28;20533;-69
2022/10/26 02:55:09;;;;;;;39.88;19.98;;;9.10;99.90;;;;;;4971387;28;20126;-69
2022/10/26 02:57:41;;;;;;;36.88;19.60;;;9.10;99.90;;;;;;4969878;28;20708;-69
2022/10/26 03:00:12;;;;;;;48.47;20.70;;;9.10;99.90;;;;;;4974979;28;20035;-68
2022/10/26 03:02:38;;;;;;;39.70;20.83;;;9.10;99.90;;;;;;4966252;28;20430;-68
2022/10/26 03:05:27;;;;;;;42.42;20.23;;;9.10;99.90;;;;;;4973025;28;20070;-68
2022/10/26 03:07:54;;;;;;;39.47;21.33;;;9.20;99.90;;;;;;4973434;28;20054;-68
2022/10/26 03:10:20;;;;;;;41.70;21.92;;;9.20;99.90;;;;;;4975026;28;20045;-68
2022/10/26 03:12:45;;;;;;;42.50;21.55;;;9.20;99.90;;;;;;4965184;28;20398;-69
2022/10/26 03:15:11;;;;;;;39.85;21.02;;;9.30;99.90;;;;;;4968650;28;20077;-68
2022/10/26 03:17:37;;;;;;;41.08;21.33;;;9.30;99.90;;;;;;4974111;28;20043;-68
2022/10/26 03:20:03;;;;;;;43.78;21.25;;;9.30;99.90;;;;;;4964828;28;20110;-67
2022/10/26 03:22:29;;;;;;;44.58;20.83;;;9.30;99.90;;;;;;4971892;28;20078;-66
2022/10/26 03:24:54;;;;;;;37.80;20.73;;;9.30;99.90;;;;;;4973098;28;20085;-67
2022/10/26 03:27:20;;;;;;;45.60;21.77;;;9.30;99.90;;;;;;4973620;28;20043;-68
2022/10/26 03:29:45;;;;;;;40.63;21.27;;;9.30;99.90;;;;;;4966989;28;20550;-68
2022/10/26 03:32:11;;;;;;;40.88;21.15;;;9.40;99.90;;;;;;4961005;28;20097;-68
2022/10/26 03:34:37;;;;;;;40.70;20.83;;;9.30;99.90;;;;;;4973954;28;20065;-68
2022/10/26 03:37:02;;;;;;;41.05;20.48;;;9.30;99.90;;;;;;4955667;28;20042;-68
2022/10/26 03:39:28;;;;;;;40.97;20.25;;;9.30;99.90;;;;;;4969778;28;20473;-68
2022/10/26 03:41:54;;;;;;;40.28;20.15;;;9.30;99.90;;;;;;4973986;28;20035;-68
2022/10/26 03:44:21;;;;;;;39.90;19.92;;;9.30;99.90;;;;;;4971000;28;20039;-68
2022/10/26 03:46:46;;;;;;;39.47;19.55;;;9.30;99.90;;;;;;4961298;28;20105;-68
2022/10/26 03:49:12;;;;;;;41.53;21.23;;;9.30;99.90;;;;;;4970074;28;20491;-68
2022/10/26 03:51:37;;;;;;;40.22;20.52;;;9.30;99.90;;;;;;4960879;28;20588;-68
2022/10/26 03:54:03;;;;;;;43.47;20.70;;;9.30;99.90;;;;;;4963153;28;20043;-68
2022/10/26 03:56:29;;;;;;;40.15;18.98;;;9.30;99.90;;;;;;4973963;28;20061;-67
2022/10/26 03:58:55;;;;;;;37.58;19.45;;;9.30;99.90;;;;;;4973908;28;20485;-67
2022/10/26 04:01:20;;;;;;;38.78;19.58;;;9.30;99.90;;;;;;4964333;28;20074;-67
2022/10/26 04:03:46;;;;;;;41.17;20.45;;;9.30;99.90;;;;;;4971563;28;20416;-67
2022/10/26 04:06:11;;;;;;;40.67;19.10;;;9.30;99.90;;;;;;4973436;28;20038;-67
2022/10/26 04:08:37;;;;;;;38.85;19.20;;;9.30;99.90;;;;;;4967842;28;20047;-68
2022/10/26 04:11:03;;;;;;;44.08;19.52;;;9.30;99.90;;;;;;4963801;28;20047;-68
2022/10/26 04:13:28;;;;;;;36.45;19.38;;;9.30;99.90;;;;;;4973496;28;20457;-67
2022/10/26 04:15:54;;;;;;;38.03;19.33;;;9.20;99.90;;;;;;4973652;28;20066;-69
2022/10/26 04:18:19;;;;;;;37.30;17.55;;;9.20;99.90;;;;;;4961658;28;20593;-69
2022/10/26 04:20:45;;;;;;;43.50;19.83;;;9.20;99.90;;;;;;4972079;28;20043;-67
2022/10/26 04:23:13;;;;;;;41.13;18.55;;;9.10;99.90;;;;;;4973395;28;20038;-67
2022/10/26 04:25:39;;;;;;;37.75;18.73;;;9.20;99.90;;;;;;4964895;28;20043;-67
2022/10/26 04:28:06;;;;;;;38.78;19.02;;;9.20;99.90;;;;;;4971421;28;20057;-67
2022/10/26 04:30:33;;;;;;;36.47;19.30;;;9.20;99.90;;;;;;4971879;28;20039;-69
2022/10/26 04:32:59;;;;;;;40.08;19.73;;;9.30;99.90;;;;;;4973203;28;20089;-68
2022/10/26 04:35:25;;;;;;;39.08;19.42;;;9.30;99.90;;;;;;4967347;28;20050;-69
2022/10/26 04:37:51;;;;;;;43.42;20.80;;;9.40;99.90;;;;;;4961106;28;20090;-69
2022/10/26 04:40:17;;;;;;;43.20;20.42;;;9.50;99.90;;;;;;4959645;28;20047;-68
2022/10/26 04:42:46;;;;;;;39.70;19.35;;;9.50;99.90;;;;;;4968054;28;20061;-68
2022/10/26 04:45:15;;;;;;;38.28;18.77;;;9.60;99.90;;;;;;4970211;28;20043;-68
2022/10/26 04:47:41;;;;;;;41.65;19.30;;;9.60;99.90;;;;;;4972442;28;20053;-68
2022/10/26 04:50:09;;;;;;;38.95;19.77;;;9.70;99.90;;;;;;4973205;28;20196;-68
2022/10/26 04:52:35;;;;;;;36.63;19.92;;;9.80;99.90;;;;;;4957426;28;20050;-69
2022/10/26 04:55:04;;;;;;;39.58;18.75;;;9.90;99.90;;;;;;4963924;28;20136;-69
2022/10/26 04:57:31;;;;;;;38.67;18.75;;;10.00;99.90;;;;;;4965169;28;20040;-69
2022/10/26 04:59:56;;;;;;;36.97;19.02;;;10.00;99.90;;;;;;4959271;28;20058;-69
2022/10/26 05:02:22;;;;;;;35.30;18.65;;;10.00;99.90;;;;;;4968287;28;20042;-69
2022/10/26 05:04:47;;;;;;;36.50;17.65;;;10.10;99.90;;;;;;4972679;28;20062;-69
2022/10/26 05:07:13;;;;;;;31.40;16.80;;;10.10;99.90;;;;;;4965407;28;20039;-69
2022/10/26 05:09:39;;;;;;;33.78;17.17;;;10.10;99.90;;;;;;4969719;28;20051;-68
2022/10/26 05:12:04;;;;;;;30.80;17.08;;;10.20;99.90;;;;;;4964828;28;20070;-70
2022/10/26 05:14:30;;;;;;;33.17;17.15;;;10.10;99.90;;;;;;4970689;28;20061;-67
2022/10/26 05:16:56;;;;;;;32.25;17.40;;;10.10;99.90;;;;;;4965820;28;20060;-68
2022/10/26 05:19:22;;;;;;;28.75;16.23;;;10.10;99.90;;;;;;4971227;28;20039;-69
2022/10/26 05:21:48;;;;;;;33.42;17.17;;;10.20;99.90;;;;;;4970775;28;20046;-70
2022/10/26 05:24:13;;;;;;;35.08;17.48;;;10.20;99.90;;;;;;4967459;28;20497;-68
2022/10/26 05:26:39;;;;;;;32.63;17.05;;;10.10;99.90;;;;;;4971633;28;20035;-69
2022/10/26 05:29:04;;;;;;;35.92;17.33;;;10.20;99.90;;;;;;4970806;28;20457;-68
2022/10/26 05:31:30;;;;;;;31.90;18.08;;;10.20;99.90;;;;;;4969009;28;20049;-68
2022/10/26 05:33:55;;;;;;;35.50;19.38;;;10.30;99.90;;;;;;4969205;28;20080;-68
2022/10/26 05:36:21;;;;;;;35.67;19.98;;;10.20;99.90;;;;;;4972555;28;20405;-67
2022/10/26 05:38:47;;;;;;;39.15;19.10;;;10.30;99.90;;;;;;4970236;28;20098;-66
2022/10/26 05:41:12;;;;;;;42.67;20.20;;;10.20;99.90;;;;;;4962242;28;20054;-66
2022/10/26 05:43:38;;;;;;;34.63;20.10;;;10.30;99.90;;;;;;4969003;28;20113;-67
2022/10/26 05:46:04;;;;;;;36.55;19.40;;;10.30;99.90;;;;;;4970145;28;20521;-68
2022/10/26 05:48:29;;;;;;;36.92;19.98;;;10.30;99.90;;;;;;4966098;28;20043;-67
2022/10/26 05:50:59;;;;;;;39.28;19.02;;;10.30;99.90;;;;;;4962984;28;20473;-67
2022/10/26 05:53:25;;;;;;;35.17;19.25;;;10.30;99.90;;;;;;4972034;28;20117;-67
2022/10/26 05:55:51;;;;;;;33.22;18.70;;;10.30;99.90;;;;;;4969785;28;20114;-67
2022/10/26 05:58:17;;;;;;;42.28;18.88;;;10.30;99.90;;;;;;4955734;28;20040;-67
2022/10/26 06:01:12;;;;;;;34.22;17.70;;;10.30;99.90;;;;;;4970774;28;20077;-67
2022/10/26 06:03:41;;;;;;;35.38;17.77;;;10.40;99.90;;;;;;4975899;28;20042;-66
2022/10/26 06:06:09;;;;;;;32.92;18.13;;;10.40;99.90;;;;;;4961257;28;20047;-69
2022/10/26 06:08:34;;;;;;;28.85;17.70;;;10.40;99.90;;;;;;4964811;28;20547;-69
2022/10/26 06:11:01;;;;;;;29.00;16.38;;;10.40;99.90;;;;;;4974927;28;20038;-68
2022/10/26 06:13:27;;;;;;;29.05;16.95;;;10.40;99.90;;;;;;4973960;28;20074;-67
2022/10/26 06:16:14;;;;;;;29.08;15.57;;;10.40;99.90;;;;;;4968100;28;21159;-69
2022/10/26 06:19:17;;;;;;;27.92;15.25;;;10.40;99.90;;;;;;4959604;28;20047;-69
2022/10/26 06:22:02;;;;;;;31.42;15.70;;;10.50;99.90;;;;;;4968142;28;20799;-68
2022/10/26 06:24:58;;;;;;;29.15;15.25;;;10.40;99.90;;;;;;4970009;28;20049;-69
2022/10/26 06:27:30;;;;;;;26.20;14.98;;;10.40;99.90;;;;;;4923111;29;20514;-69
2022/10/26 06:29:55;;;;;;;;;;;10.40;99.90;;;;;;4953408;28;20051;-68
2022/10/26 06:32:23;;;;;;;29.50;14.88;;;10.40;99.90;;;;;;4969543;28;19925;-69
2022/10/26 06:34:52;;;;;;;30.67;14.55;;;10.30;99.90;;;;;;4975300;28;20512;-69
2022/10/26 06:37:18;;;;;;;27.35;15.45;;;10.40;99.90;;;;;;4971983;28;20493;-69
2022/10/26 06:39:46;;;;;;;28.73;15.10;;;10.40;99.90;;;;;;4963444;28;20051;-68
2022/10/26 06:42:12;;;;;;;27.40;15.07;;;10.40;99.90;;;;;;4970927;28;20500;-69
2022/10/26 06:44:38;;;;;;;31.45;15.13;;;10.40;99.90;;;;;;4973258;28;20047;-68
2022/10/26 06:47:06;;;;;;;26.27;14.60;;;10.40;99.90;;;;;;4964334;28;20038;-69
2022/10/26 06:49:38;;;;;;;27.48;14.77;;;10.30;99.90;;;;;;4967239;28;20051;-69
2022/10/26 06:52:04;;;;;;;25.95;14.32;;;10.30;99.90;;;;;;4973550;28;20108;-69
2022/10/26 06:54:41;;;;;;;25.67;14.32;;;10.30;99.90;;;;;;4971380;28;20493;-68
2022/10/26 06:57:10;;;;;;;28.10;14.32;;;10.30;99.90;;;;;;4957334;28;20046;-69
2022/10/26 06:59:59;;;;;;;25.98;14.57;;;10.30;99.90;;;;;;4958173;28;20043;-68
2022/10/26 07:02:25;;;;;;;29.05;14.57;;;10.30;99.90;;;;;;4969362;28;20043;-69
2022/10/26 07:04:50;;;;;;;29.65;14.90;;;10.30;99.90;;;;;;4974762;28;20049;-69
2022/10/26 07:07:19;;;;;;;25.33;15.05;;;10.40;99.90;;;;;;4963229;28;20496;-69
2022/10/26 07:09:45;;;;;;;27.52;15.13;;;10.40;99.90;;;;;;4965305;28;20065;-69
2022/10/26 07:12:10;;;;;;;27.40;15.60;;;10.40;99.90;;;;;;4967801;28;20048;-69
2022/10/26 07:14:36;;;;;;;25.75;15.27;;;10.50;99.90;;;;;;4971568;28;20114;-68
2022/10/26 07:17:02;;;;;;;24.60;14.82;;;10.60;99.90;;;;;;4974566;28;20070;-68
2022/10/26 07:19:27;;;;;;;25.90;14.85;;;10.60;99.90;;;;;;4973795;28;20042;-69
2022/10/26 07:21:55;;;;;;;27.52;14.63;;;10.70;99.90;;;;;;4957002;28;20086;-68
2022/10/26 07:24:22;;;;;;;32.33;15.05;;;10.80;99.90;;;;;;4968874;28;20054;-68
2022/10/26 07:26:48;;;;;;;26.92;14.38;;;10.90;99.90;;;;;;4974125;28;20035;-69
2022/10/26 07:29:15;;;;;;;23.73;13.73;;;11.00;99.90;;;;;;4968567;28;20081;-69
2022/10/26 07:31:41;;;;;;;23.52;12.85;;;11.10;99.90;;;;;;4958605;28;20118;-69
2022/10/26 07:34:06;;;;;;;23.77;12.93;;;11.20;99.90;;;;;;4968342;28;20118;-69
2022/10/26 07:36:35;;;;;;;21.02;13.45;;;11.20;99.90;;;;;;4971601;28;20034;-69
2022/10/26 07:39:04;;;;;;;22.25;13.07;;;11.30;99.90;;;;;;4966535;28;20134;-68
2022/10/26 07:41:30;;;;;;;21.75;12.23;;;11.40;99.90;;;;;;4958281;28;20066;-68
2022/10/26 07:43:56;;;;;;;19.88;11.77;;;11.50;99.90;;;;;;4959650;28;20056;-68
2022/10/26 07:46:21;;;;;;;26.58;13.02;;;11.50;99.90;;;;;;4959380;28;20035;-69
2022/10/26 07:48:47;;;;;;;26.20;11.38;;;11.50;99.90;;;;;;4971779;28;20047;-69
2022/10/26 07:51:12;;;;;;;20.63;11.98;;;11.60;99.90;;;;;;4972775;28;20393;-69
2022/10/26 07:53:41;;;;;;;21.00;11.43;;;11.60;99.90;;;;;;4968290;28;20043;-69
2022/10/26 07:56:08;;;;;;;16.20;11.13;;;11.70;99.90;;;;;;4970686;28;20081;-69
2022/10/26 07:58:35;;;;;;;18.23;10.82;;;11.70;99.90;;;;;;4973295;28;20043;-70
2022/10/26 08:01:09;;;;;;;16.67;9.90;;;11.80;99.90;;;;;;4987726;23;20055;-68
2022/10/26 08:03:35;;;;;;;15.07;9.77;;;11.90;99.90;;;;;;4928706;29;20035;-69
2022/10/26 08:06:03;;;;;;;16.63;10.25;;;11.90;99.90;;;;;;4927098;29;20110;-68
2022/10/26 08:08:29;;;;;;;16.35;9.95;;;12.00;99.90;;;;;;4934052;29;20190;-69
2022/10/26 08:10:54;;;;;;;16.67;10.32;;;12.00;99.90;;;;;;4930433;29;20036;-68
2022/10/26 08:13:20;;;;;;;15.93;10.15;;;12.00;99.90;;;;;;4933238;29;20094;-68
2022/10/26 08:15:46;;;;;;;14.93;10.88;;;12.10;99.90;;;;;;4935167;29;20122;-69
2022/10/26 08:18:12;;;;;;;15.10;10.35;;;12.10;99.90;;;;;;4925286;29;20048;-68
2022/10/26 08:20:37;;;;;;;14.30;10.23;;;12.30;99.90;;;;;;4926993;29;20114;-70
2022/10/26 08:23:05;;;;;;;15.30;10.20;;;12.40;99.90;;;;;;4932599;29;20035;-68
2022/10/26 08:25:31;;;;;;;15.77;10.45;;;12.50;99.90;;;;;;4934595;29;20053;-69
2022/10/26 08:28:01;;;;;;;17.65;10.93;;;12.70;99.90;;;;;;4935051;29;20071;-68
2022/10/26 08:30:28;;;;;;;19.80;10.38;;;12.80;99.90;;;;;;4944522;28;20042;-69
2022/10/26 08:33:04;;;;;;;17.08;10.80;;;12.90;99.90;;;;;;4931590;29;20051;-68
2022/10/26 08:35:31;;;;;;;15.43;10.13;;;13.00;99.90;;;;;;4922880;29;20048;-68
2022/10/26 08:37:56;;;;;;;18.88;9.93;;;13.10;99.90;;;;;;4933363;29;20048;-68
2022/10/26 08:40:31;;;;;;;14.73;9.98;;;13.10;99.90;;;;;;4922081;29;20046;-68
2022/10/26 08:43:16;;;;;;;18.67;9.27;;;13.10;99.90;;;;;;4931566;29;20058;-68
2022/10/26 08:46:13;;;;;;;17.58;9.35;;;13.10;99.90;;;;;;4928821;29;20043;-67
2022/10/26 08:48:49;;;;;;;19.75;9.68;;;13.10;99.90;;;;;;4926441;29;20482;-67
2022/10/26 08:51:23;;;;;;;17.42;9.82;;;13.10;99.90;;;;;;4928563;29;20040;-68
2022/10/26 08:54:07;;;;;;;16.67;10.02;;;13.20;99.90;;;;;;4929229;29;20085;-70
2022/10/26 08:56:39;;;;;;;16.38;9.63;;;13.30;99.90;;;;;;4931398;29;20490;-68
2022/10/26 08:59:29;;;;;;;14.38;9.27;;;13.40;99.90;;;;;;4929523;29;20040;-71
2022/10/26 09:01:55;;;;;;;13.63;9.23;;;13.50;99.90;;;;;;4930725;29;20046;-69
2022/10/26 09:04:26;;;;;;;18.20;10.02;;;13.60;99.90;;;;;;4933910;29;20035;-70
2022/10/26 09:07:12;;;;;;;17.00;9.25;;;13.60;99.90;;;;;;4932505;29;20387;-67
2022/10/26 09:10:04;;;;;;;15.43;9.25;;;13.70;99.90;;;;;;4925227;29;20051;-69
2022/10/26 09:12:39;;;;;;;15.32;9.02;;;13.80;99.90;;;;;;4931404;29;20035;-68
2022/10/26 09:15:13;;;;;;;14.80;9.55;;;13.90;99.90;;;;;;4931216;29;20043;-67
2022/10/26 09:18:03;;;;;;;15.18;9.05;;;14.00;99.90;;;;;;4965235;28;20437;-70
2022/10/26 09:20:48;;;;;;;13.68;8.43;;;14.20;99.90;;;;;;4925853;29;20048;-67
2022/10/26 09:23:13;;;;;;;11.68;7.35;;;14.30;99.90;;;;;;4927911;29;20044;-68
2022/10/26 09:25:40;;;;;;;16.17;7.30;;;14.50;99.90;;;;;;4929839;29;20454;-67
2022/10/26 09:28:17;;;;;;;9.60;6.13;;;14.60;99.90;;;;;;4932315;29;20058;-68
2022/10/26 09:30:44;;;;;;;14.93;5.50;;;14.80;99.90;;;;;;4933401;28;20788;-67
2022/10/26 09:33:17;;;;;;;11.05;6.05;;;15.00;99.90;;;;;;4933292;29;20044;-69
2022/10/26 09:36:02;;;;;;;9.13;5.25;;;15.10;99.90;;;;;;4935633;29;20059;-69
2022/10/26 09:38:50;;;;;;;12.35;6.30;;;15.10;99.90;;;;;;4933620;29;20040;-69
2022/10/26 09:41:42;;;;;;;8.48;5.15;;;15.20;99.90;;;;;;4935018;29;20047;-67
2022/10/26 09:44:28;;;;;;;9.70;5.30;;;15.20;99.90;;;;;;4937228;29;20138;-70
2022/10/26 09:47:09;;;;;;;9.30;4.97;;;15.40;99.90;;;;;;4930523;29;20047;-68
2022/10/26 09:49:49;;;;;;;9.80;4.77;;;15.60;99.90;;;;;;4931327;29;20044;-69
2022/10/26 09:52:15;;;;;;;11.10;4.70;;;15.80;99.90;;;;;;4935343;29;20043;-67
2022/10/26 09:54:41;;;;;;;10.77;5.50;;;16.00;99.90;;;;;;4937236;29;20036;-68
2022/10/26 09:57:08;;;;;;;8.20;5.30;;;16.30;99.90;;;;;;4934011;29;20046;-68
2022/10/26 09:59:38;;;;;;;9.77;4.82;;;16.50;99.90;;;;;;4931951;29;20170;-68
2022/10/26 10:02:32;;;;;;;9.93;5.13;;;16.70;99.90;;;;;;4933227;29;20071;-68
2022/10/26 10:04:58;;;;;;;10.93;5.00;;;16.90;99.90;;;;;;4932900;29;20383;-68
2022/10/26 10:07:23;;;;;;;8.93;5.28;;;17.10;99.90;;;;;;4935541;29;20083;-68
2022/10/26 10:10:15;;;;;;;8.43;4.63;;;17.10;99.90;;;;;;4937548;29;20457;-68
2022/10/26 10:12:41;;;;;;;10.40;4.95;;;17.10;99.90;;;;;;4937208;29;20122;-69
2022/10/26 10:15:20;;;;;;;7.32;4.60;;;17.20;99.90;;;;;;4926835;29;20138;-68
2022/10/26 10:17:48;;;;;;;7.97;4.70;;;17.10;99.90;;;;;;4941300;29;20047;-68
2022/10/26 10:20:20;;;;;;;11.10;4.65;;;17.00;99.90;;;;;;4937278;29;20063;-68
2022/10/26 10:23:00;;;;;;;6.93;4.50;;;16.90;99.90;;;;;;4933658;29;20462;-68
2022/10/26 10:25:35;;;;;;;9.18;4.57;;;16.90;99.90;;;;;;4933081;29;20521;-68
2022/10/26 10:28:01;;;;;;;11.32;5.10;;;16.90;99.90;;;;;;4927843;29;20062;-68
2022/10/26 10:30:32;;;;;;;9.27;4.82;;;17.00;99.90;;;;;;4935607;29;20047;-69
2022/10/26 10:33:06;;;;;;;8.35;4.40;;;17.10;99.90;;;;;;4922564;29;20486;-69
2022/10/26 10:35:32;;;;;;;11.73;4.70;;;17.20;99.90;;;;;;4934535;29;20063;-72
2022/10/26 10:37:58;;;;;;;8.68;5.20;;;17.20;99.90;;;;;;4936363;29;20099;-69
2022/10/26 10:40:26;;;;;;;8.75;4.90;;;17.20;99.90;;;;;;4932726;29;20118;-72
2022/10/26 10:43:01;;;;;;;7.60;4.68;;;17.20;99.90;;;;;;4934279;29;20035;-69
2022/10/26 10:45:29;;;;;;;8.43;4.57;;;17.20;99.90;;;;;;4932109;29;20044;-68
2022/10/26 10:48:14;;;;;;;11.63;4.93;;;17.20;99.90;;;;;;4934518;29;20130;-68
2022/10/26 10:51:11;;;;;;;7.18;4.65;;;17.30;99.90;;;;;;4937375;28;20056;-69
2022/10/26 10:53:52;;;;;;;11.63;5.03;;;17.30;99.90;;;;;;4935223;29;20059;-68
2022/10/26 10:56:22;;;;;;;14.00;4.88;;;17.40;99.90;;;;;;4917250;29;20044;-68
2022/10/26 10:59:06;;;;;;;7.77;4.33;;;17.40;99.90;;;;;;4928957;29;20596;-70
2022/10/26 11:01:39;;;;;;;9.82;5.03;;;17.50;99.90;;;;;;4930277;29;20545;-69
2022/10/26 11:04:24;;;;;;;8.95;4.40;;;17.50;99.90;;;;;;4936217;29;20095;-68
2022/10/26 11:06:52;;;;;;;7.85;4.78;;;17.70;99.90;;;;;;4929309;29;20047;-69
2022/10/26 11:09:25;;;;;;;7.13;4.07;;;17.80;99.90;;;;;;4922807;29;20102;-68
2022/10/26 11:11:57;;;;;;;10.20;5.15;;;17.80;99.90;;;;;;4928379;29;20512;-68
2022/10/26 11:14:40;;;;;;;8.95;4.40;;;17.90;99.90;;;;;;4935863;29;20059;-68
2022/10/26 11:17:13;;;;;;;10.50;4.68;;;18.00;99.90;;;;;;4964736;28;20502;-70
2022/10/26 11:19:44;;;;;;;8.25;4.82;;;17.90;99.90;;;;;;4925859;29;20061;-68
2022/10/26 11:22:14;;;;;;;10.38;4.78;;;17.90;99.90;;;;;;4926677;29;20036;-67
2022/10/26 11:24:53;;;;;;;9.35;4.80;;;17.90;99.90;;;;;;4923296;29;20044;-67
2022/10/26 11:27:45;;;;;;;9.05;4.53;;;17.90;99.90;;;;;;4930378;29;20518;-68
2022/10/26 11:30:21;;;;;;;8.20;4.28;;;17.90;99.90;;;;;;4934350;29;20498;-68
2022/10/26 11:32:55;;;;;;;7.47;4.13;;;17.90;99.90;;;;;;4924246;29;20426;-70
2022/10/26 11:35:20;;;;;;;9.77;4.78;;;18.00;99.90;;;;;;4930932;29;20051;-67
2022/10/26 11:38:01;;;;;;;15.75;4.85;;;18.10;99.90;;;;;;4930376;29;20414;-68
2022/10/26 11:40:32;;;;;;;9.55;5.15;;;18.10;99.90;;;;;;4937082;29;20075;-67
2022/10/26 11:43:29;;;;;;;8.77;4.72;;;18.00;99.90;;;;;;4932937;29;20043;-67
2022/10/26 11:46:27;;;;;;;6.85;4.53;;;18.00;99.90;;;;;;4934718;29;20044;-68
2022/10/26 11:49:36;;;;;;;11.07;4.75;;;18.00;99.90;;;;;;4935074;29;20409;-68
2022/10/26 11:52:16;;;;;;;12.60;4.63;;;18.10;99.90;;;;;;4923223;29;20043;-67
2022/10/26 11:55:10;;;;;;;8.90;4.85;;;18.20;99.90;;;;;;4931191;29;20090;-71
2022/10/26 11:57:37;;;;;;;13.73;5.30;;;18.30;99.90;;;;;;4924987;29;20051;-67
2022/10/26 12:00:30;;;;;;;12.50;5.18;;;18.40;99.90;;;;;;4917427;29;20044;-67
2022/10/26 12:03:13;;;;;;;9.20;5.22;;;18.40;99.90;;;;;;4929888;29;20062;-67
2022/10/26 12:05:47;;;;;;;9.98;5.18;;;18.40;99.90;;;;;;4935575;29;20039;-67
2022/10/26 12:08:36;;;;;;;12.05;4.80;;;18.40;99.90;;;;;;4930661;29;20123;-71
2022/10/26 12:11:26;;;;;;;8.75;5.18;;;18.50;99.90;;;;;;4933400;29;20179;-67
2022/10/26 12:14:17;;;;;;;11.15;5.00;;;18.50;99.90;;;;;;4927426;29;20056;-67
2022/10/26 12:16:46;;;;;;;;;;;18.40;99.90;;;;;;4912878;29;20056;-66
2022/10/26 12:19:25;;;;;;;8.23;4.80;;;18.30;99.90;;;;;;4932699;29;20010;-67
2022/10/26 12:21:51;;;;;;;9.88;5.00;;;18.40;99.90;;;;;;4934206;29;20043;-68
2022/10/26 12:24:23;;;;;;;9.82;5.03;;;18.50;99.90;;;;;;4932960;29;20031;-67
2022/10/26 12:26:51;;;;;;;6.60;4.55;;;18.60;99.90;;;;;;4929982;29;20047;-67
2022/10/26 12:29:31;;;;;;;9.60;4.68;;;18.70;99.90;;;;;;4932958;29;20040;-69
2022/10/26 12:31:58;;;;;;;8.88;4.10;;;18.70;99.90;;;;;;4928335;29;20059;-67
2022/10/26 12:34:30;;;;;;;7.57;4.00;;;18.80;99.90;;;;;;4934325;29;20047;-70
2022/10/26 12:36:56;;;;;;;7.22;3.95;;;18.80;99.90;;;;;;4945759;28;20079;-69
2022/10/26 12:39:39;;;;;;;8.15;4.07;;;18.80;99.90;;;;;;4932710;29;20429;-69
2022/10/26 12:42:05;;;;;;;11.15;4.70;;;18.70;99.90;;;;;;4926223;29;20047;-68
2022/10/26 12:45:01;;;;;;;8.95;5.03;;;18.70;99.90;;;;;;4934067;29;20119;-69
2022/10/26 12:47:26;;;;;;;8.27;4.45;;;18.70;99.90;;;;;;4937263;29;20063;-69
2022/10/26 12:50:08;;;;;;;8.25;4.32;;;18.70;99.90;;;;;;4932510;29;20051;-69
2022/10/26 12:52:33;;;;;;;;;;;18.60;99.90;;;;;;4927360;29;20529;-69
2022/10/26 12:55:11;;;;;;;9.20;4.60;;;18.70;99.90;;;;;;4932090;29;19923;-69
2022/10/26 12:57:49;;;;;;;11.73;5.00;;;18.70;99.90;;;;;;4932685;29;20062;-69
2022/10/26 13:00:23;;;;;;;9.70;4.55;;;18.70;99.90;;;;;;4928702;29;20124;-69
2022/10/26 13:03:10;;;;;;;9.40;4.95;;;18.80;99.90;;;;;;4921805;29;20036;-69